| time (UTC) | temp F | wind direction | speed knots | gust knots | rain 1hr in | rain 24hr in | rain mn in | humidity % | barometer mb |
| 20260906150018 | 73 | 167 | 2.6 | 6.1 | 0.00 | 0.00 | 0.00 | 84 | 1019.2 |
| 20260906145035 | 71 | 168 | 3.5 | 6.1 | 0.00 | 0.00 | 0.00 | 87 | 1019.0 |
| 20260906144033 | 71 | 156 | 2.6 | 5.2 | 0.00 | 0.00 | 0.00 | 89 | 1018.9 |
| 20260906143029 | 70 | 177 | 3.5 | 5.2 | 0.00 | 0.00 | 0.00 | 91 | 1018.9 |
| 20260906142046 | 69 | 168 | 3.5 | 6.1 | 0.00 | 0.00 | 0.00 | 96 | 1018.7 |
| 20260906141024 | 67 | 164 | 2.6 | 5.2 | 0.00 | 0.00 | 0.00 | 99 | 1018.7 |
| 20260906140021 | 66 | 177 | 3.5 | 5.2 | 0.00 | 0.00 | 0.00 | 99 | 1018.8 |
| 20260906135018 | 66 | 171 | 1.7 | 3.5 | 0.00 | 0.00 | 0.00 | 99 | 1019.0 |
| 20260906134016 | 65 | 160 | 1.7 | 3.5 | 0.00 | 0.00 | 0.00 | 99 | 1018.9 |
| 20260906133033 | 64 | 239 | 0.9 | 1.7 | 0.00 | 0.00 | 0.00 | 99 | 1018.9 |
| 20260906132030 | 64 | 294 | 0.9 | 2.6 | 0.00 | 0.00 | 0.00 | 99 | 1018.9 |
| 20260906131027 | 63 | 291 | 0.9 | 1.7 | 0.00 | 0.00 | 0.00 | 99 | 1018.9 |
| 20260906130024 | 62 | 307 | 1.7 | 3.5 | 0.00 | 0.00 | 0.00 | 99 | 1018.7 |
| 20260906125041 | 61 | 274 | 1.7 | 2.6 | 0.00 | 0.00 | 0.00 | 99 | 1018.5 |
| 20260906124018 | 60 | 310 | 2.6 | 4.3 | 0.00 | 0.00 | 0.00 | 99 | 1018.6 |
| 20260906123015 | 61 | 311 | 2.6 | 4.3 | 0.00 | 0.00 | 0.00 | 99 | 1018.4 |
| 20260906122033 | 60 | 291 | 1.7 | 2.6 | 0.00 | 0.00 | 0.00 | 99 | 1018.4 |
| 20260906121030 | 60 | 298 | 1.7 | 3.5 | 0.00 | 0.00 | 0.00 | 99 | 1018.4 |
| 20260906120047 | 60 | 279 | 1.7 | 3.5 | 0.00 | 0.00 | 0.00 | 99 | 1018.4 |
| 20260906115024 | 59 | 288 | 1.7 | 3.5 | 0.00 | 0.00 | 0.00 | 99 | 1018.3 |
| 20260906114021 | 59 | 297 | 2.6 | 3.5 | 0.00 | 0.00 | 0.00 | 99 | 1018.2 |
| 20260906113018 | 59 | 305 | 2.6 | 3.5 | 0.00 | 0.00 | 0.00 | 99 | 1018.0 |
| 20260906112035 | 60 | 300 | 1.7 | 3.5 | 0.00 | 0.00 | 0.00 | 99 | 1017.8 |
| 20260906111033 | 60 | 276 | 1.7 | 2.6 | 0.00 | 0.00 | 0.00 | 99 | 1017.7 |
| 20260906110029 | 60 | 280 | 1.7 | 2.6 | 0.00 | 0.00 | 0.00 | 99 | 1017.9 |
| 20260906105026 | 59 | 287 | 1.7 | 3.5 | 0.00 | 0.00 | 0.00 | 99 | 1018.0 |
| 20260906104024 | 60 | 294 | 1.7 | 3.5 | 0.00 | 0.00 | 0.00 | 99 | 1017.8 |
| 20260906103041 | 60 | 305 | 2.6 | 4.3 | 0.00 | 0.00 | 0.00 | 99 | 1017.8 |
| 20260906102018 | 60 | 275 | 0.9 | 2.6 | 0.00 | 0.00 | 0.00 | 99 | 1017.7 |
| 20260906101015 | 60 | 288 | 0.9 | 2.6 | 0.00 | 0.00 | 0.00 | 99 | 1017.5 |
| 20260906100033 | 60 | 297 | 1.7 | 3.5 | 0.00 | 0.00 | 0.00 | 99 | 1017.7 |
| 20260906095030 | 61 | 306 | 2.6 | 4.3 | 0.00 | 0.00 | 0.00 | 99 | 1017.6 |
| 20260906094027 | 60 | 314 | 3.5 | 5.2 | 0.00 | 0.00 | 0.00 | 99 | 1017.5 |
| 20260906093024 | 60 | 304 | 2.6 | 4.3 | 0.00 | 0.00 | 0.00 | 99 | 1017.3 |
| 20260906092021 | 60 | 304 | 2.6 | 4.3 | 0.00 | 0.00 | 0.00 | 99 | 1017.1 |
| 20260906091018 | 60 | 306 | 1.7 | 3.5 | 0.00 | 0.00 | 0.00 | 99 | 1017.0 |
| 20260906090016 | 61 | 290 | 1.7 | 3.5 | 0.00 | 0.00 | 0.00 | 99 | 1016.9 |
| 20260906085032 | 61 | 301 | 1.7 | 3.5 | 0.00 | 0.00 | 0.00 | 99 | 1017.1 |
| 20260906084030 | 61 | 290 | 1.7 | 3.5 | 0.00 | 0.00 | 0.00 | 99 | 1017.2 |
| 20260906083027 | 61 | 307 | 1.7 | 3.5 | 0.00 | 0.00 | 0.00 | 99 | 1017.4 |
| 20260906082023 | 62 | 313 | 2.6 | 4.3 | 0.00 | 0.00 | 0.00 | 99 | 1017.3 |
| 20260906081021 | 61 | 307 | 2.6 | 3.5 | 0.00 | 0.00 | 0.00 | 99 | 1017.4 |
| 20260906080018 | 61 | 321 | 3.5 | 4.3 | 0.00 | 0.00 | 0.00 | 99 | 1017.4 |
| 20260906075035 | 61 | 313 | 3.5 | 4.3 | 0.00 | 0.00 | 0.00 | 99 | 1017.3 |
| 20260906074033 | 60 | 313 | 3.5 | 5.2 | 0.00 | 0.00 | 0.00 | 99 | 1017.1 |
| 20260906073029 | 61 | 293 | 1.7 | 2.6 | 0.00 | 0.00 | 0.00 | 99 | 1017.2 |
| 20260906072027 | 61 | 315 | 2.6 | 5.2 | 0.00 | 0.00 | 0.00 | 99 | 1017.2 |
| 20260906071024 | 62 | 304 | 2.6 | 3.5 | 0.00 | 0.00 | 0.00 | 99 | 1017.2 |
| 20260906070020 | 62 | 307 | 2.6 | 5.2 | 0.00 | 0.00 | 0.00 | 99 | 1017.5 |
| 20260906065018 | 62 | 310 | 2.6 | 4.3 | 0.00 | 0.00 | 0.00 | 99 | 1017.5 |
| 20260906064035 | 63 | 300 | 1.7 | 3.5 | 0.00 | 0.00 | 0.00 | 99 | 1017.5 |
| 20260906063033 | 63 | 281 | 1.7 | 3.5 | 0.00 | 0.00 | 0.00 | 99 | 1017.5 |
| 20260906062029 | 64 | 310 | 1.7 | 2.6 | 0.00 | 0.00 | 0.00 | 99 | 1017.8 |
| 20260906061046 | 64 | 323 | 2.6 | 5.2 | 0.00 | 0.00 | 0.00 | 99 | 1017.7 |
| 20260906060024 | 64 | 312 | 2.6 | 3.5 | 0.00 | 0.00 | 0.00 | 99 | 1017.7 |
| 20260906055020 | 64 | 303 | 1.7 | 3.5 | 0.00 | 0.00 | 0.00 | 99 | 1017.7 |
| 20260906054017 | 64 | 315 | 1.7 | 3.5 | 0.00 | 0.00 | 0.00 | 99 | 1017.7 |
| 20260906053054 | 64 | 312 | 1.7 | 3.5 | 0.00 | 0.00 | 0.00 | 99 | 1017.6 |
| 20260906052032 | 64 | 308 | 1.7 | 3.5 | 0.00 | 0.00 | 0.00 | 99 | 1017.4 |
| 20260906051029 | 64 | 283 | 1.7 | 2.6 | 0.00 | 0.00 | 0.00 | 99 | 1017.4 |
| 20260906050026 | 64 | 255 | 1.7 | 2.6 | 0.00 | 0.00 | 0.00 | 99 | 1017.4 |
| 20260906045104 | 65 | 276 | 1.7 | 2.6 | 0.00 | 0.00 | 0.00 | 99 | 1017.6 |
| 20260906044040 | 64 | 318 | 2.6 | 3.5 | 0.00 | 0.00 | 0.00 | 99 | 1017.7 |
| 20260906043017 | 64 | 323 | 2.6 | 3.5 | 0.00 | 0.00 | 0.00 | 99 | 1017.6 |
| 20260906042034 | 64 | 313 | 1.7 | 3.5 | 0.00 | 0.00 | 0.00 | 99 | 1017.5 |
| 20260906041032 | 64 | 294 | 1.7 | 3.5 | 0.00 | 0.00 | 0.00 | 99 | 1017.2 |
| 20260906040028 | 64 | 290 | 1.7 | 2.6 | 0.00 | 0.00 | 0.00 | 99 | 1017.3 |
| 20260906035026 | 64 | 321 | 2.6 | 3.5 | 0.00 | 0.00 | 0.00 | 99 | 1017.3 |
| 20260906034023 | 64 | 311 | 2.6 | 4.3 | 0.00 | 0.00 | 0.00 | 99 | 1017.5 |
| 20260906033041 | 64 | 306 | 1.7 | 3.5 | 0.00 | 0.00 | 0.00 | 99 | 1017.3 |
| 20260906032017 | 64 | 325 | 3.5 | 5.2 | 0.00 | 0.00 | 0.00 | 99 | 1017.3 |
| 20260906031033 | 64 | 315 | 1.7 | 3.5 | 0.00 | 0.00 | 0.00 | 99 | 1017.2 |
| 20260906030031 | 64 | 312 | 2.6 | 5.2 | 0.00 | 0.00 | 0.00 | 99 | 1016.8 |
| 20260906025028 | 64 | 302 | 2.6 | 3.5 | 0.00 | 0.00 | 0.00 | 99 | 1016.8 |
| 20260906024025 | 64 | 313 | 2.6 | 4.3 | 0.00 | 0.00 | 0.00 | 99 | 1016.7 |
| 20260906023042 | 65 | 293 | 1.7 | 3.5 | 0.00 | 0.00 | 0.00 | 99 | 1016.5 |
| 20260906022039 | 65 | 318 | 2.6 | 4.3 | 0.00 | 0.00 | 0.00 | 99 | 1016.5 |
| 20260906021017 | 65 | 313 | 2.6 | 3.5 | 0.00 | 0.00 | 0.00 | 98 | 1016.2 |
| 20260906020034 | 66 | 310 | 1.7 | 3.5 | 0.00 | 0.00 | 0.00 | 97 | 1015.9 |
| 20260906015031 | 67 | 327 | 1.7 | 3.5 | 0.00 | 0.00 | 0.00 | 96 | 1015.7 |
| 20260906014048 | 68 | 326 | 1.7 | 2.6 | 0.00 | 0.00 | 0.00 | 96 | 1015.4 |
| 20260906013025 | 68 | 329 | 1.7 | 2.6 | 0.00 | 0.00 | 0.00 | 94 | 1015.1 |
| 20260906012042 | 69 | 330 | 0.9 | 1.7 | 0.00 | 0.00 | 0.00 | 92 | 1014.9 |
| 20260906011019 | 70 | 322 | 0.9 | 1.7 | 0.00 | 0.00 | 0.00 | 92 | 1014.6 |
| 20260906010016 | 70 | 13 | 0.9 | 1.7 | 0.00 | 0.00 | 0.00 | 91 | 1014.7 |
| 20260906005034 | 71 | 346 | 0.9 | 2.6 | 0.00 | 0.00 | 0.00 | 90 | 1015.0 |
| 20260906004031 | 73 | 20 | 0.9 | 2.6 | 0.00 | 0.00 | 0.00 | 87 | 1015.0 |
| 20260906003028 | 74 | 64 | 0.9 | 1.7 | 0.00 | 0.00 | 0.00 | 85 | 1015.3 |
| 20260906002045 | 74 | 341 | 0.9 | 3.5 | 0.00 | 0.00 | 0.00 | 83 | 1015.1 |
| 20260906001022 | 76 | 331 | 0.0 | 1.7 | 0.00 | 0.00 | 0.00 | 81 | 1015.2 |
| 20260906000020 | 76 | 284 | 0.9 | 2.6 | 0.00 | 0.00 | 0.00 | 80 | 1015.0 |
| 20260905235036 | 77 | 293 | 1.7 | 3.5 | 0.00 | 0.00 | 0.00 | 77 | 1015.0 |
| 20260905234033 | 79 | 321 | 0.9 | 2.6 | 0.00 | 0.00 | 0.00 | 75 | 1015.0 |
| 20260905233030 | 80 | 327 | 0.9 | 2.6 | 0.00 | 0.00 | 0.00 | 72 | 1015.0 |
| 20260905232028 | 82 | 346 | 1.7 | 2.6 | 0.00 | 0.00 | 0.00 | 70 | 1015.1 |
| 20260905231025 | 83 | 253 | 0.9 | 2.6 | 0.00 | 0.00 | 0.00 | 68 | 1015.2 |
| 20260905230022 | 82 | 309 | 0.9 | 1.7 | 0.00 | 0.00 | 0.00 | 70 | 1015.3 |
| 20260905225039 | 83 | 240 | 1.7 | 4.3 | 0.00 | 0.00 | 0.00 | 67 | 1015.1 |
| 20260905224016 | 83 | 317 | 0.9 | 4.3 | 0.00 | 0.00 | 0.00 | 67 | 1015.1 |
| 20260905223034 | 83 | 209 | 0.9 | 1.7 | 0.00 | 0.00 | 0.00 | 67 | 1015.5 |
| 20260905222031 | 81 | 292 | 1.7 | 4.3 | 0.00 | 0.00 | 0.00 | 70 | 1015.3 |
| 20260905221047 | 83 | 193 | 0.9 | 3.5 | 0.00 | 0.00 | 0.00 | 66 | 1015.3 |
| 20260905220025 | 81 | 27 | 1.7 | 4.3 | 0.00 | 0.00 | 0.00 | 69 | 1015.4 |
| 20260905215022 | 82 | 188 | 1.7 | 3.5 | 0.00 | 0.00 | 0.00 | 68 | 1015.6 |
| 20260905214019 | 82 | 7 | 0.9 | 3.5 | 0.00 | 0.00 | 0.00 | 68 | 1015.7 |
| 20260905213017 | 81 | 309 | 1.7 | 3.5 | 0.00 | 0.00 | 0.00 | 69 | 1015.7 |
| 20260905212034 | 80 | 287 | 1.7 | 3.5 | 0.00 | 0.00 | 0.00 | 70 | 1015.9 |
| 20260905211030 | 79 | 322 | 3.5 | 6.1 | 0.00 | 0.00 | 0.00 | 74 | 1015.8 |
| 20260905210028 | 80 | 334 | 2.6 | 7.0 | 0.00 | 0.00 | 0.00 | 70 | 1016.0 |
| 20260905205025 | 80 | 270 | 1.7 | 3.5 | 0.00 | 0.00 | 0.00 | 70 | 1016.1 |
| 20260905204022 | 79 | 284 | 1.7 | 2.6 | 0.00 | 0.00 | 0.00 | 71 | 1016.2 |
| 20260905203019 | 80 | 309 | 1.7 | 5.2 | 0.00 | 0.00 | 0.00 | 70 | 1016.3 |
| 20260905202016 | 80 | 177 | 1.7 | 3.5 | 0.00 | 0.00 | 0.00 | 73 | 1016.6 |
| 20260905201055 | 78 | 207 | 1.7 | 4.3 | 0.00 | 0.00 | 0.00 | 73 | 1016.6 |
| 20260905200031 | 77 | 228 | 1.7 | 2.6 | 0.00 | 0.00 | 0.00 | 77 | 1016.6 |
| 20260905195028 | 78 | 254 | 1.7 | 3.5 | 0.00 | 0.00 | 0.00 | 75 | 1016.6 |
| 20260905194025 | 78 | 304 | 1.7 | 3.5 | 0.00 | 0.00 | 0.00 | 73 | 1016.6 |
| 20260905193023 | 78 | 155 | 0.9 | 1.7 | 0.00 | 0.00 | 0.00 | 74 | 1016.5 |
| 20260905192040 | 78 | 200 | 0.9 | 2.6 | 0.00 | 0.00 | 0.00 | 73 | 1016.5 |
| 20260905191017 | 76 | 255 | 0.9 | 1.7 | 0.00 | 0.00 | 0.00 | 75 | 1016.7 |
| 20260905190054 | 75 | 195 | 0.9 | 3.5 | 0.00 | 0.00 | 0.00 | 80 | 1016.5 |
| 20260905185031 | 75 | 210 | 0.9 | 3.5 | 0.00 | 0.00 | 0.00 | 79 | 1016.4 |
| 20260905184028 | 76 | 172 | 1.7 | 3.5 | 0.00 | 0.00 | 0.00 | 80 | 1016.4 |
| 20260905183046 | 75 | 230 | 1.7 | 4.3 | 0.00 | 0.00 | 0.00 | 81 | 1016.4 |
| 20260905182023 | 75 | 289 | 0.9 | 2.6 | 0.00 | 0.00 | 0.00 | 80 | 1016.6 |
| 20260905181020 | 75 | 199 | 0.9 | 2.6 | 0.00 | 0.00 | 0.00 | 81 | 1016.7 |
| 20260905180037 | 76 | 178 | 1.7 | 4.3 | 0.00 | 0.00 | 0.00 | 81 | 1016.8 |
| 20260905175034 | 75 | 309 | 1.7 | 2.6 | 0.00 | 0.00 | 0.00 | 81 | 1017.0 |
| 20260905174052 | 74 | 345 | 1.7 | 5.2 | 0.00 | 0.00 | 0.00 | 82 | 1017.1 |
| 20260905173029 | 74 | 318 | 0.9 | 3.5 | 0.00 | 0.00 | 0.00 | 84 | 1017.2 |
| 20260905172026 | 74 | 37 | 0.9 | 3.5 | 0.00 | 0.00 | 0.00 | 84 | 1016.9 |
| 20260905171024 | 74 | 177 | 2.6 | 4.3 | 0.00 | 0.00 | 0.00 | 85 | 1017.0 |
| 20260905170020 | 73 | 197 | 1.7 | 3.5 | 0.00 | 0.00 | 0.00 | 85 | 1017.0 |
| 20260905165017 | 73 | 176 | 1.7 | 3.5 | 0.00 | 0.00 | 0.00 | 88 | 1017.1 |
| 20260905164035 | 73 | 202 | 1.7 | 3.5 | 0.00 | 0.00 | 0.00 | 88 | 1017.0 |
| 20260905163032 | 72 | 173 | 1.7 | 3.5 | 0.00 | 0.00 | 0.00 | 90 | 1017.0 |
| 20260905162029 | 72 | 174 | 2.6 | 4.3 | 0.00 | 0.00 | 0.00 | 90 | 1017.1 |
| 20260905161026 | 72 | 169 | 1.7 | 3.5 | 0.00 | 0.00 | 0.00 | 90 | 1017.3 |
| 20260905160023 | 72 | 140 | 1.7 | 3.5 | 0.00 | 0.00 | 0.00 | 91 | 1017.2 |
| 20260905155020 | 71 | 174 | 2.6 | 3.5 | 0.00 | 0.00 | 0.00 | 92 | 1017.1 |
| 20260905154017 | 71 | 172 | 2.6 | 4.3 | 0.00 | 0.00 | 0.00 | 92 | 1017.1 |
| 20260905153035 | 71 | 194 | 0.9 | 2.6 | 0.00 | 0.00 | 0.00 | 92 | 1017.0 |
| 20260905152033 | 71 | 73 | 0.9 | 1.7 | 0.00 | 0.00 | 0.00 | 92 | 1016.9 |
| 20260905151029 | 71 | 177 | 0.9 | 3.5 | 0.00 | 0.00 | 0.00 | 93 | 1016.9 |